Aérodrome :
LOGIN :

S'inscrire | Disclaimer

   EN    FR    IT 

 










Légende :    VFR   VFR Marginal   IFR   IFR Intensif   IFR Très Intensif
Visi : 
Plafond : 
>= 8 km
>= 3000ft
5 à 8 km
1000 à 3000 ft
1500m à 5 km
500 à 1000 ft
800 à 1500m
200 à 500 ft
< 800m
< 200 ft
Symboles :   Orages  Brouillard  Fortes neiges  Fortes précipitations  Vent > 20 kt
SIGMETs :   Divers  Orages  Givrage  Turbulence  Onde Orograph.  Cendres Volcan.







- Altitude de l'aérodrome : 74 ft
- Code IATA : EIN


EHEH - Eindhoven

DERNIER METAR :
  • 180425Z AUTO VRB02KT 6000 BR NCD M03/M04 Q1025 WHT

METARs EXPIRÉS :
  • 180414Z AUTO VRB02KT 7000 BR NCD M03/M04 Q1025 WHT
  • 180401Z AUTO 15004KT 5000 BR NCD M04/M05 Q1025 WHT
  • 180355Z AUTO 15005KT 130V210 3300 BR NCD M03/M04 Q1025 YLO
  • 180344Z AUTO 13005KT 3400 BR NCD M03/M04 Q1025 YLO
  • 180325Z AUTO 14004KT 3200 BR NCD M03/M04 Q1025 YLO
  • 180317Z AUTO 14005KT 3800 BR NCD M03/M04 Q1025 GRN
  • 180306Z AUTO 14005KT 110V170 6000 BR FEW180 M02/M04 Q1025 WHT
  • 180255Z AUTO 14004KT 130V300 7000 BR BKN170 M02/M04 Q1025 WHT
  • 180226Z AUTO 14005KT 100V170 7000 BR BKN180 M02/M03 Q1025 WHT
  • 180225Z AUTO 13005KT 8000 BR BKN180 M02/M03 Q1025 BLU
  • 180219Z AUTO 13005KT 8000 BR NCD M01/M03 Q1025 BLU
  • 180203Z AUTO 14005KT 140V260 8000 BR NCD M01/M03 Q1025 BLU
  • 180201Z AUTO 14005KT 140V260 7000 BR NCD M02/M03 Q1025 WHT
  • 180155Z AUTO 15004KT 140V200 9000 BR NCD M02/M03 Q1025 BLU

TAF TAF EHEH
Valide du 18 à 00h jusqu'au 19 à 06h UTC


172126Z 1800/1906 VRB02KT 8000 BR NSC
BECMG 1800/1802 10004KT 4500 MIFG BR
PROB40
TEMPO 1802/1808 VRB02KT 0500 FZFG
BECMG 1808/1810 17005KT CAVOK
TEMPO 1815/1822 VRB02KT
Pas de NOTAMs connus pour ce terrain.



MET'MAP, la Météo Aéronautique d'un coup d'oeil ! - Copyright ORBIFLY Décembre 2007 - Disclaimer

ORBIFLY MET'MAP TEAM :

Programmation & Développement : Alexandra Zaïnal
Conception & Développement : Baudouin d'Aumeries
Co-Programmation & Développement : Marc-Olivier Méhu
Soutien technique & logistique : Manuel Goepfert

Contact : metmap@orbifly.com




SOURCES & CREDITS :

   NOAA